BIRD492 HECA-LLER
Flight info
| Callsign | BIRD492 |
|---|---|
| Flight time | 0h 33m |
| Altitude | 35000 |
| Route | MENLI N697 SISIK W976 DATOK DCT NALSO J10 NURIT |
| Aircraft | C750/M-SBDE3FGHRWXY/S |
Departure
| Time | 2026-04-25 17:44 |
|---|---|
| Airport | Cairo International Airport (HECA) |
Arrival
| Time | 2026-04-25 18:17 |
|---|---|
| Airport | Ramon International Airport (LLER) |
| Time | Latitude | Longitude | Altitude | Speed | Heading |
|---|---|---|---|---|---|
| 2026-04-25 17:19 | 30.10870 | 31.39654 | 333 ft | 0 kts | 255° |
| 2026-04-25 17:29 | 30.10857 | 31.39659 | 331 ft | 0 kts | 255° |
| 2026-04-25 17:29 | 30.10808 | 31.39674 | 334 ft | 0 kts | 255° |
| 2026-04-25 17:32 | 30.10809 | 31.39678 | 334 ft | 3 kts | 255° |
| 2026-04-25 17:32 | 30.10816 | 31.39708 | 337 ft | 4 kts | 255° |
| 2026-04-25 17:32 | 30.10821 | 31.39738 | 334 ft | 4 kts | 262° |
| 2026-04-25 17:33 | 30.10826 | 31.39767 | 337 ft | 4 kts | 232° |
| 2026-04-25 17:33 | 30.10836 | 31.39775 | 338 ft | 1 kts | 187° |
| 2026-04-25 17:33 | 30.10838 | 31.39776 | 334 ft | 0 kts | 187° |
| 2026-04-25 17:35 | 30.10829 | 31.39776 | 338 ft | 4 kts | 180° |
| 2026-04-25 17:35 | 30.10790 | 31.39780 | 341 ft | 10 kts | 172° |
| 2026-04-25 17:35 | 30.10715 | 31.39800 | 350 ft | 12 kts | 169° |
| 2026-04-25 17:35 | 30.10642 | 31.39823 | 352 ft | 13 kts | 166° |
| 2026-04-25 17:36 | 30.10552 | 31.39851 | 356 ft | 16 kts | 166° |
| 2026-04-25 17:36 | 30.10490 | 31.39907 | 363 ft | 12 kts | 107° |
| 2026-04-25 17:36 | 30.10537 | 31.40027 | 362 ft | 22 kts | 49° |
| 2026-04-25 17:36 | 30.10634 | 31.40155 | 362 ft | 21 kts | 49° |
| 2026-04-25 17:37 | 30.10657 | 31.40186 | 365 ft | 3 kts | 50° |
| 2026-04-25 17:37 | 30.10715 | 31.40265 | 364 ft | 22 kts | 49° |
| 2026-04-25 17:37 | 30.10828 | 31.40412 | 361 ft | 26 kts | 47° |
| 2026-04-25 17:37 | 30.10958 | 31.40584 | 360 ft | 30 kts | 49° |
| 2026-04-25 17:38 | 30.11108 | 31.40782 | 364 ft | 33 kts | 51° |
| 2026-04-25 17:38 | 30.11204 | 31.40912 | 360 ft | 32 kts | 49° |
| 2026-04-25 17:38 | 30.11392 | 31.41160 | 359 ft | 30 kts | 49° |
| 2026-04-25 17:38 | 30.11401 | 31.41315 | 364 ft | 17 kts | 84° |
| 2026-04-25 17:39 | 30.11497 | 31.41459 | 365 ft | 25 kts | 49° |
| 2026-04-25 17:39 | 30.11618 | 31.41622 | 365 ft | 32 kts | 49° |
| 2026-04-25 17:39 | 30.11773 | 31.41829 | 364 ft | 33 kts | 49° |
| 2026-04-25 17:39 | 30.11922 | 31.42026 | 364 ft | 32 kts | 49° |
| 2026-04-25 17:40 | 30.12063 | 31.42215 | 363 ft | 30 kts | 49° |
| 2026-04-25 17:40 | 30.12189 | 31.42383 | 363 ft | 21 kts | 56° |
| 2026-04-25 17:40 | 30.12202 | 31.42425 | 364 ft | 0 kts | 81° |
| 2026-04-25 17:41 | 30.12203 | 31.42437 | 364 ft | 6 kts | 90° |
| 2026-04-25 17:41 | 30.12179 | 31.42498 | 368 ft | 6 kts | 135° |
| 2026-04-25 17:41 | 30.12161 | 31.42516 | 370 ft | 0 kts | 139° |
| 2026-04-25 17:42 | 30.12151 | 31.42526 | 371 ft | 15 kts | 139° |
| 2026-04-25 17:42 | 30.12076 | 31.42599 | 377 ft | 12 kts | 140° |
| 2026-04-25 17:42 | 30.12034 | 31.42610 | 378 ft | 4 kts | 254° |
| 2026-04-25 17:42 | 30.12025 | 31.42583 | 378 ft | 3 kts | 242° |
| 2026-04-25 17:43 | 30.12019 | 31.42571 | 378 ft | 0 kts | 240° |
| 2026-04-25 17:43 | 30.11992 | 31.42526 | 379 ft | 19 kts | 229° |
| 2026-04-25 17:43 | 30.11657 | 31.42080 | 380 ft | 129 kts | 229° |
| 2026-04-25 17:43 | 30.10996 | 31.41230 | 691 ft | 149 kts | 216° |
| 2026-04-25 17:44 | 30.09999 | 31.40756 | 1170 ft | 163 kts | 188° |
| 2026-04-25 17:44 | 30.08862 | 31.40915 | 1866 ft | 173 kts | 164° |
| 2026-04-25 17:44 | 30.07799 | 31.41743 | 2307 ft | 204 kts | 133° |
| 2026-04-25 17:44 | 30.07009 | 31.43201 | 2813 ft | 222 kts | 124° |
| 2026-04-25 17:45 | 30.06194 | 31.44768 | 3446 ft | 237 kts | 124° |
| 2026-04-25 17:45 | 30.05584 | 31.45924 | 3517 ft | 260 kts | 124° |
| 2026-04-25 17:45 | 30.04275 | 31.48283 | 3924 ft | 277 kts | 126° |
| 2026-04-25 17:45 | 30.03210 | 31.50109 | 5125 ft | 275 kts | 127° |
| 2026-04-25 17:46 | 30.02101 | 31.51950 | 6026 ft | 284 kts | 128° |
| 2026-04-25 17:46 | 30.00940 | 31.53822 | 6975 ft | 289 kts | 128° |
| 2026-04-25 17:46 | 29.99738 | 31.55708 | 8009 ft | 295 kts | 129° |
| 2026-04-25 17:46 | 29.98494 | 31.57612 | 9087 ft | 300 kts | 130° |
| 2026-04-25 17:47 | 29.97202 | 31.59543 | 10008 ft | 309 kts | 130° |
| 2026-04-25 17:47 | 29.95814 | 31.61565 | 10385 ft | 335 kts | 131° |
| 2026-04-25 17:47 | 29.94283 | 31.63738 | 10562 ft | 363 kts | 132° |
| 2026-04-25 17:47 | 29.92639 | 31.66017 | 11130 ft | 371 kts | 132° |
| 2026-04-25 17:48 | 29.89267 | 31.70565 | 12766 ft | 377 kts | 134° |
| 2026-04-25 17:48 | 29.87534 | 31.72842 | 13562 ft | 380 kts | 134° |
| 2026-04-25 17:48 | 29.85767 | 31.75124 | 14268 ft | 383 kts | 135° |
| 2026-04-25 17:49 | 29.83966 | 31.77411 | 14970 ft | 386 kts | 136° |
| 2026-04-25 17:49 | 29.82137 | 31.79693 | 15675 ft | 388 kts | 136° |
| 2026-04-25 17:49 | 29.80287 | 31.81965 | 16453 ft | 389 kts | 137° |
| 2026-04-25 17:49 | 29.78409 | 31.84232 | 17184 ft | 393 kts | 138° |
| 2026-04-25 17:50 | 29.76514 | 31.86519 | 17933 ft | 397 kts | 135° |
| 2026-04-25 17:50 | 29.75418 | 31.89461 | 18679 ft | 408 kts | 104° |
| 2026-04-25 17:50 | 29.75183 | 31.92704 | 19368 ft | 415 kts | 94° |
| 2026-04-25 17:50 | 29.75196 | 31.96050 | 20064 ft | 420 kts | 91° |
| 2026-04-25 17:51 | 29.75229 | 31.99427 | 20743 ft | 425 kts | 92° |
| 2026-04-25 17:51 | 29.75066 | 32.02856 | 21083 ft | 437 kts | 100° |
| 2026-04-25 17:51 | 29.74364 | 32.06317 | 21418 ft | 445 kts | 110° |
| 2026-04-25 17:51 | 29.73368 | 32.09694 | 22160 ft | 447 kts | 112° |
| 2026-04-25 17:52 | 29.72392 | 32.13091 | 23123 ft | 442 kts | 109° |
| 2026-04-25 17:52 | 29.72128 | 32.14235 | 23709 ft | 433 kts | 107° |
| 2026-04-25 17:52 | 29.71115 | 32.19557 | 26513 ft | 386 kts | 107° |
| 2026-04-25 17:52 | 29.70456 | 32.22437 | 28195 ft | 358 kts | 110° |
| 2026-04-25 17:53 | 29.69788 | 32.25146 | 29390 ft | 351 kts | 110° |
| 2026-04-25 17:53 | 29.69165 | 32.27869 | 29947 ft | 360 kts | 108° |
| 2026-04-25 17:53 | 29.68562 | 32.30685 | 30544 ft | 364 kts | 108° |
| 2026-04-25 17:53 | 29.67930 | 32.33535 | 31076 ft | 370 kts | 109° |
| 2026-04-25 17:54 | 29.67266 | 32.36422 | 31591 ft | 376 kts | 109° |
| 2026-04-25 17:54 | 29.66593 | 32.39376 | 31856 ft | 392 kts | 109° |
| 2026-04-25 17:54 | 29.65906 | 32.42448 | 32437 ft | 391 kts | 108° |
| 2026-04-25 17:54 | 29.65262 | 32.45372 | 33938 ft | 364 kts | 109° |
| 2026-04-25 17:55 | 29.64629 | 32.48165 | 34669 ft | 359 kts | 111° |
| 2026-04-25 17:55 | 29.63973 | 32.50979 | 34894 ft | 374 kts | 111° |
| 2026-04-25 17:55 | 29.63289 | 32.53955 | 34900 ft | 395 kts | 110° |
| 2026-04-25 17:55 | 29.62594 | 32.57061 | 34913 ft | 416 kts | 109° |
| 2026-04-25 17:56 | 29.61852 | 32.60359 | 34919 ft | 436 kts | 109° |
| 2026-04-25 17:56 | 29.61065 | 32.63805 | 34915 ft | 455 kts | 109° |
| 2026-04-25 17:56 | 29.60283 | 32.67405 | 34906 ft | 475 kts | 105° |
| 2026-04-25 17:56 | 29.59883 | 32.71269 | 34906 ft | 497 kts | 95° |
| 2026-04-25 17:57 | 29.59892 | 32.75311 | 34918 ft | 514 kts | 89° |
| 2026-04-25 17:57 | 29.60089 | 32.79481 | 34919 ft | 530 kts | 87° |
| 2026-04-25 17:57 | 29.60266 | 32.83773 | 34919 ft | 544 kts | 90° |
| 2026-04-25 17:58 | 29.60195 | 32.90233 | 34915 ft | 563 kts | 93° |
| 2026-04-25 17:58 | 29.60181 | 32.94744 | 34931 ft | 576 kts | 90° |
| 2026-04-25 17:58 | 29.60303 | 32.99402 | 34932 ft | 588 kts | 89° |
| 2026-04-25 17:58 | 29.60402 | 33.04153 | 34930 ft | 599 kts | 91° |
| 2026-04-25 17:59 | 29.60390 | 33.08990 | 34942 ft | 609 kts | 92° |
| 2026-04-25 17:59 | 29.60434 | 33.18876 | 34936 ft | 628 kts | 90° |
| 2026-04-25 18:00 | 29.60542 | 33.28833 | 34947 ft | 623 kts | 91° |
| 2026-04-25 18:00 | 29.60530 | 33.33708 | 34964 ft | 606 kts | 91° |
| 2026-04-25 18:00 | 29.60540 | 33.36409 | 34948 ft | 605 kts | 91° |
| 2026-04-25 18:01 | 29.60598 | 33.41838 | 34944 ft | 610 kts | 90° |
| 2026-04-25 18:01 | 29.60647 | 33.51633 | 34941 ft | 614 kts | 91° |
| 2026-04-25 18:02 | 29.60683 | 33.61445 | 34942 ft | 614 kts | 91° |
| 2026-04-25 18:02 | 29.60727 | 33.71262 | 34934 ft | 615 kts | 91° |
| 2026-04-25 18:03 | 29.60744 | 33.81065 | 34936 ft | 616 kts | 91° |
| 2026-04-25 18:03 | 29.60752 | 33.90918 | 34940 ft | 616 kts | 92° |
| 2026-04-25 18:04 | 29.60721 | 34.00779 | 34928 ft | 613 kts | 91° |
| 2026-04-25 18:04 | 29.60728 | 34.05445 | 34115 ft | 539 kts | 91° |
| 2026-04-25 18:04 | 29.60730 | 34.09507 | 31459 ft | 481 kts | 91° |
| 2026-04-25 18:04 | 29.60707 | 34.13307 | 27380 ft | 498 kts | 92° |
| 2026-04-25 18:05 | 29.60652 | 34.17467 | 24431 ft | 532 kts | 92° |
| 2026-04-25 18:05 | 29.60674 | 34.21573 | 24044 ft | 498 kts | 91° |
| 2026-04-25 18:05 | 29.60468 | 34.25446 | 24031 ft | 483 kts | 99° |
| 2026-04-25 18:05 | 29.60017 | 34.29290 | 24042 ft | 493 kts | 100° |
| 2026-04-25 18:06 | 29.59575 | 34.33263 | 24038 ft | 509 kts | 99° |
| 2026-04-25 18:06 | 29.59162 | 34.37349 | 24042 ft | 517 kts | 98° |
| 2026-04-25 18:06 | 29.58731 | 34.41485 | 24035 ft | 522 kts | 99° |
| 2026-04-25 18:06 | 29.58266 | 34.45637 | 24031 ft | 523 kts | 99° |
| 2026-04-25 18:07 | 29.57810 | 34.49716 | 23721 ft | 498 kts | 99° |
| 2026-04-25 18:07 | 29.57357 | 34.53540 | 22924 ft | 467 kts | 103° |
| 2026-04-25 18:07 | 29.56619 | 34.57020 | 21897 ft | 415 kts | 107° |
| 2026-04-25 18:07 | 29.55978 | 34.59961 | 19452 ft | 362 kts | 108° |
| 2026-04-25 18:08 | 29.55369 | 34.62767 | 15648 ft | 390 kts | 107° |
| 2026-04-25 18:08 | 29.54621 | 34.65992 | 12789 ft | 433 kts | 107° |
| 2026-04-25 18:08 | 29.53812 | 34.69291 | 11410 ft | 417 kts | 107° |
| 2026-04-25 18:08 | 29.53043 | 34.72348 | 10458 ft | 360 kts | 107° |
| 2026-04-25 18:09 | 29.52397 | 34.74891 | 8475 ft | 334 kts | 107° |
| 2026-04-25 18:09 | 29.51702 | 34.77471 | 7506 ft | 319 kts | 107° |
| 2026-04-25 18:09 | 29.51289 | 34.78968 | 6631 ft | 281 kts | 107° |
| 2026-04-25 18:09 | 29.50902 | 34.80344 | 5738 ft | 265 kts | 106° |
| 2026-04-25 18:10 | 29.50044 | 34.83732 | 4897 ft | 258 kts | 104° |
| 2026-04-25 18:10 | 29.49712 | 34.85049 | 4902 ft | 252 kts | 105° |
| 2026-04-25 18:10 | 29.49083 | 34.87563 | 4885 ft | 235 kts | 104° |
| 2026-04-25 18:10 | 29.48951 | 34.88783 | 4670 ft | 227 kts | 83° |
| 2026-04-25 18:11 | 29.49514 | 34.90438 | 4353 ft | 220 kts | 56° |
| 2026-04-25 18:11 | 29.50280 | 34.91912 | 4386 ft | 212 kts | 56° |
| 2026-04-25 18:11 | 29.51008 | 34.93346 | 4170 ft | 202 kts | 57° |
| 2026-04-25 18:11 | 29.51781 | 34.94621 | 3825 ft | 194 kts | 41° |
| 2026-04-25 18:12 | 29.52849 | 34.95557 | 3435 ft | 191 kts | 27° |
| 2026-04-25 18:12 | 29.54075 | 34.96073 | 3089 ft | 186 kts | 11° |
| 2026-04-25 18:12 | 29.55281 | 34.96431 | 2970 ft | 174 kts | 14° |
| 2026-04-25 18:12 | 29.56449 | 34.96815 | 2662 ft | 177 kts | 12° |
| 2026-04-25 18:13 | 29.57626 | 34.97146 | 2569 ft | 173 kts | 11° |
| 2026-04-25 18:13 | 29.58787 | 34.97469 | 2485 ft | 163 kts | 12° |
| 2026-04-25 18:13 | 29.59882 | 34.97770 | 2327 ft | 158 kts | 12° |
| 2026-04-25 18:14 | 29.61959 | 34.98261 | 1978 ft | 141 kts | 11° |
| 2026-04-25 18:14 | 29.62894 | 34.98486 | 1622 ft | 135 kts | 15° |
| 2026-04-25 18:14 | 29.63768 | 34.98823 | 1539 ft | 134 kts | 19° |
| 2026-04-25 18:14 | 29.64643 | 34.99122 | 1490 ft | 128 kts | 15° |
| 2026-04-25 18:15 | 29.65481 | 34.99408 | 1381 ft | 121 kts | 14° |
| 2026-04-25 18:15 | 29.66277 | 34.99647 | 1223 ft | 118 kts | 11° |
| 2026-04-25 18:15 | 29.67088 | 34.99885 | 1094 ft | 122 kts | 10° |
| 2026-04-25 18:15 | 29.67919 | 35.00079 | 994 ft | 122 kts | 11° |
| 2026-04-25 18:16 | 29.68756 | 35.00320 | 855 ft | 125 kts | 14° |
| 2026-04-25 18:16 | 29.69610 | 35.00547 | 672 ft | 126 kts | 14° |
| 2026-04-25 18:16 | 29.71355 | 35.01029 | 301 ft | 126 kts | 16° |
| 2026-04-25 18:17 | 29.72136 | 35.01248 | 294 ft | 99 kts | 13° |
| 2026-04-25 18:17 | 29.72734 | 35.01424 | 294 ft | 91 kts | 11° |
| 2026-04-25 18:17 | 29.73432 | 35.01609 | 295 ft | 77 kts | 14° |
| 2026-04-25 18:17 | 29.73720 | 35.01689 | 294 ft | 12 kts | 13° |
| 2026-04-25 18:18 | 29.70869 | 35.00889 | 390 ft | 133 kts | 15° |
| 2026-04-25 18:18 | 29.71718 | 35.01136 | 296 ft | 115 kts | 14° |
| 2026-04-25 18:18 | 29.71395 | 35.01041 | 300 ft | 124 kts | 15° |
| 2026-04-25 18:18 | 29.73727 | 35.01691 | 294 ft | 0 kts | 13° |
| 2026-04-25 18:19 | 29.73729 | 35.01686 | 294 ft | 0 kts | 296° |
| 2026-04-25 18:19 | 29.73604 | 35.01665 | 294 ft | 49 kts | 176° |
| 2026-04-25 18:19 | 29.73293 | 35.01571 | 294 ft | 42 kts | 198° |
| 2026-04-25 18:19 | 29.73263 | 35.01465 | 296 ft | 15 kts | 2° |
| 2026-04-25 18:20 | 29.73389 | 35.01428 | 294 ft | 18 kts | 282° |
| 2026-04-25 18:20 | 29.73192 | 35.01321 | 294 ft | 50 kts | 193° |
| 2026-04-25 18:20 | 29.72881 | 35.01235 | 294 ft | 28 kts | 200° |
| 2026-04-25 18:20 | 29.72849 | 35.01064 | 295 ft | 24 kts | 292° |
| 2026-04-25 18:21 | 29.72699 | 35.00945 | 294 ft | 43 kts | 193° |
| 2026-04-25 18:21 | 29.72528 | 35.00899 | 295 ft | 16 kts | 195° |
| 2026-04-25 18:21 | 29.72512 | 35.00835 | 296 ft | 8 kts | 286° |
| 2026-04-25 18:21 | 29.72525 | 35.00800 | 294 ft | 4 kts | 281° |
| 2026-04-25 18:22 | 29.72526 | 35.00794 | 297 ft | 0 kts | 283° |